Terminal Aerodrome Forecast
Issued by NWS

Home | Current Version | Previous Version | Text Only | Print | Product List | Glossary On
Versions: 1 2 3 4 5 6 7 8 9 10 11 12 13 14 15 16
000
FTUS42 KMLB 312300 RRA
TAFFPR
TAF
KFPR 312346Z 0100/0124 18007KT P6SM BKN090
     FM010100 16005KT P6SM SCT060 BKN250
     FM011400 20004KT P6SM SCT020 SCT250
     FM011730 12009KT P6SM VCTS BKN030CB=

USA.gov is the U.S. government's official web portal to all federal, state and local government web resources and services.